| time (UTC) | temp F | wind direction | speed MPH | gust MPH | rain 1hr in | rain 24hr in | rain mn in | humidity % | barometer mb |
| 20260831013927 | 83 | 111 | 1.0 | 3.0 | 0.00 | 0.00 | 0.00 | 75 | 1008.9 |
| 20260831013427 | 83 | 153 | 1.0 | 4.0 | 0.00 | 0.00 | 0.00 | 74 | 1008.9 |
| 20260831012928 | 83 | 178 | 2.0 | 4.0 | 0.00 | 0.00 | 0.00 | 73 | 1008.9 |
| 20260831012427 | 84 | 119 | 2.0 | 4.0 | 0.00 | 0.00 | 0.00 | 72 | 1008.8 |
| 20260831011927 | 85 | 110 | 2.0 | 3.0 | 0.00 | 0.00 | 0.00 | 69 | 1008.8 |
| 20260831011427 | 85 | 119 | 1.0 | 2.0 | 0.00 | 0.00 | 0.00 | 67 | 1008.8 |
| 20260831010427 | 86 | 119 | 0.0 | 1.0 | 0.00 | 0.00 | 0.00 | 66 | 1008.7 |
| 20260831005428 | 87 | 119 | 0.0 | 2.0 | 0.00 | 0.00 | 0.00 | 64 | 1008.7 |
| 20260831004927 | 87 | 238 | 0.0 | 2.0 | 0.00 | 0.00 | 0.00 | 63 | 1008.6 |
| 20260831004426 | 88 | 196 | 0.0 | 2.0 | 0.00 | 0.00 | 0.00 | 61 | 1008.7 |
| 20260831003425 | 88 | 226 | 1.0 | 3.0 | 0.00 | 0.00 | 0.00 | 61 | 1008.7 |
| 20260831002925 | 89 | 205 | 2.0 | 4.0 | 0.00 | 0.00 | 0.00 | 61 | 1008.7 |
| 20260831002425 | 89 | 234 | 2.0 | 4.0 | 0.00 | 0.00 | 0.00 | 60 | 1008.7 |
| 20260831001924 | 89 | 208 | 2.0 | 5.0 | 0.00 | 0.00 | 0.00 | 60 | 1008.8 |
| 20260831001425 | 89 | 205 | 2.0 | 6.0 | 0.00 | 0.00 | 0.00 | 59 | 1008.7 |
| 20260831000924 | 90 | 219 | 3.0 | 6.0 | 0.00 | 0.00 | 0.00 | 58 | 1008.7 |
| 20260831000425 | 90 | 215 | 3.0 | 6.0 | 0.00 | 0.00 | 0.00 | 58 | 1008.7 |
| 20260830235923 | 91 | 178 | 2.0 | 6.0 | 0.00 | 0.00 | 0.00 | 57 | 1008.7 |
| 20260830235423 | 91 | 230 | 3.0 | 7.0 | 0.00 | 0.00 | 0.00 | 57 | 1008.7 |
| 20260830234923 | 91 | 247 | 2.0 | 7.0 | 0.00 | 0.00 | 0.00 | 58 | 1008.6 |
| 20260830234424 | 92 | 240 | 3.0 | 6.0 | 0.00 | 0.00 | 0.00 | 56 | 1008.7 |
| 20260830233923 | 92 | 243 | 2.0 | 6.0 | 0.00 | 0.00 | 0.00 | 59 | 1008.7 |
| 20260830233423 | 92 | 212 | 3.0 | 6.0 | 0.00 | 0.00 | 0.00 | 58 | 1008.6 |
| 20260830232923 | 92 | 265 | 3.0 | 6.0 | 0.00 | 0.00 | 0.00 | 58 | 1008.7 |
| 20260830232423 | 92 | 238 | 2.0 | 6.0 | 0.00 | 0.00 | 0.00 | 60 | 1008.6 |
| 20260830231925 | 92 | 234 | 3.0 | 7.0 | 0.00 | 0.00 | 0.00 | 59 | 1008.7 |
| 20260830231423 | 92 | 261 | 4.0 | 7.0 | 0.00 | 0.00 | 0.00 | 57 | 1008.6 |
| 20260830230922 | 92 | 208 | 3.0 | 8.0 | 0.00 | 0.00 | 0.00 | 56 | 1008.5 |
| 20260830225922 | 92 | 221 | 3.0 | 10.0 | 0.00 | 0.00 | 0.00 | 56 | 1008.4 |
| 20260830225422 | 91 | 259 | 5.0 | 10.0 | 0.00 | 0.00 | 0.00 | 55 | 1008.4 |
| 20260830224921 | 91 | 243 | 4.0 | 8.0 | 0.00 | 0.00 | 0.00 | 56 | 1008.5 |
| 20260830224421 | 91 | 178 | 5.0 | 8.0 | 0.00 | 0.00 | 0.00 | 55 | 1008.5 |
| 20260830223922 | 91 | 198 | 4.0 | 12.0 | 0.00 | 0.00 | 0.00 | 54 | 1008.6 |
| 20260830222421 | 90 | 171 | 6.0 | 12.0 | 0.00 | 0.00 | 0.00 | 54 | 1008.6 |
| 20260830221923 | 91 | 227 | 4.0 | 11.0 | 0.00 | 0.00 | 0.00 | 54 | 1008.5 |
| 20260830221421 | 91 | 221 | 7.0 | 13.0 | 0.00 | 0.00 | 0.00 | 54 | 1008.4 |
| 20260830220421 | 91 | 219 | 7.0 | 15.0 | 0.00 | 0.00 | 0.00 | 54 | 1008.4 |
| 20260830215920 | 91 | 229 | 7.0 | 15.0 | 0.00 | 0.00 | 0.00 | 53 | 1008.4 |
| 20260830215420 | 91 | 221 | 4.0 | 12.0 | 0.00 | 0.00 | 0.00 | 54 | 1008.4 |
| 20260830212920 | 91 | 216 | 6.0 | 9.0 | 0.00 | 0.00 | 0.00 | 53 | 1008.2 |
| 20260830212419 | 91 | 190 | 4.0 | 11.0 | 0.00 | 0.00 | 0.00 | 55 | 1008.3 |
| 20260830211920 | 91 | 225 | 6.0 | 12.0 | 0.00 | 0.00 | 0.00 | 53 | 1008.3 |
| 20260830211418 | 91 | 166 | 5.0 | 15.0 | 0.00 | 0.00 | 0.00 | 54 | 1008.2 |
| 20260830210919 | 90 | 217 | 6.0 | 16.0 | 0.00 | 0.00 | 0.00 | 54 | 1008.4 |
| 20260830205918 | 89 | 229 | 6.0 | 14.0 | 0.00 | 0.00 | 0.00 | 54 | 1008.7 |
| 20260830205418 | 89 | 200 | 7.0 | 14.0 | 0.00 | 0.00 | 0.00 | 53 | 1008.9 |
| 20260830204918 | 89 | 212 | 8.0 | 13.0 | 0.00 | 0.00 | 0.00 | 53 | 1008.9 |
| 20260830204418 | 88 | 232 | 9.0 | 13.0 | 0.00 | 0.00 | 0.00 | 52 | 1008.9 |
| 20260830203918 | 88 | 225 | 5.0 | 12.0 | 0.00 | 0.00 | 0.00 | 54 | 1008.8 |
| 20260830202917 | 89 | 189 | 7.0 | 17.0 | 0.00 | 0.00 | 0.00 | 51 | 1008.9 |
| 20260830202417 | 90 | 214 | 9.0 | 17.0 | 0.00 | 0.00 | 0.00 | 53 | 1009.0 |
| 20260830201918 | 89 | 198 | 4.0 | 12.0 | 0.00 | 0.00 | 0.00 | 57 | 1009.0 |
| 20260830201416 | 89 | 254 | 6.0 | 12.0 | 0.00 | 0.00 | 0.00 | 55 | 1008.9 |
| 20260830200917 | 89 | 178 | 3.0 | 11.0 | 0.00 | 0.00 | 0.00 | 56 | 1008.6 |
| 20260830200416 | 89 | 178 | 4.0 | 11.0 | 0.00 | 0.00 | 0.00 | 55 | 1008.7 |
| 20260830195916 | 89 | 219 | 5.0 | 11.0 | 0.00 | 0.00 | 0.00 | 56 | 1008.9 |
| 20260830195416 | 89 | 202 | 6.0 | 14.0 | 0.00 | 0.00 | 0.00 | 55 | 1009.0 |
| 20260830194916 | 89 | 231 | 7.0 | 14.0 | 0.00 | 0.00 | 0.00 | 55 | 1009.0 |
| 20260830194415 | 89 | 201 | 7.0 | 14.0 | 0.00 | 0.00 | 0.00 | 55 | 1009.1 |
| 20260830193915 | 89 | 200 | 6.0 | 14.0 | 0.00 | 0.00 | 0.00 | 56 | 1009.3 |
| 20260830193414 | 89 | 275 | 7.0 | 15.0 | 0.00 | 0.00 | 0.00 | 55 | 1009.4 |
| 20260830192915 | 89 | 177 | 8.0 | 16.0 | 0.00 | 0.00 | 0.00 | 54 | 1009.3 |
| 20260830192415 | 89 | 187 | 9.0 | 16.0 | 0.00 | 0.00 | 0.00 | 54 | 1009.3 |
| 20260830191916 | 89 | 213 | 6.0 | 14.0 | 0.00 | 0.00 | 0.00 | 55 | 1009.2 |
| 20260830191415 | 89 | 225 | 7.0 | 14.0 | 0.00 | 0.00 | 0.00 | 54 | 1009.1 |
| 20260830190914 | 90 | 200 | 7.0 | 12.0 | 0.00 | 0.00 | 0.00 | 55 | 1009.0 |
| 20260830190414 | 90 | 201 | 3.0 | 10.0 | 0.00 | 0.00 | 0.00 | 58 | 1008.8 |
| 20260830185914 | 89 | 169 | 5.0 | 10.0 | 0.00 | 0.00 | 0.00 | 56 | 1008.7 |
| 20260830185414 | 89 | 151 | 5.0 | 12.0 | 0.00 | 0.00 | 0.00 | 57 | 1008.8 |
| 20260830184914 | 89 | 200 | 7.0 | 12.0 | 0.00 | 0.00 | 0.00 | 58 | 1009.0 |
| 20260830184413 | 88 | 262 | 6.0 | 14.0 | 0.00 | 0.00 | 0.00 | 57 | 1009.0 |
| 20260830183914 | 88 | 240 | 7.0 | 14.0 | 0.00 | 0.00 | 0.00 | 58 | 1008.9 |
| 20260830182913 | 87 | 221 | 5.0 | 11.0 | 0.00 | 0.00 | 0.00 | 61 | 1009.0 |
| 20260830182413 | 86 | 223 | 3.0 | 13.0 | 0.00 | 0.00 | 0.00 | 59 | 1009.1 |
| 20260830181914 | 86 | 223 | 6.0 | 15.0 | 0.00 | 0.00 | 0.00 | 57 | 1009.1 |
| 20260830181413 | 86 | 229 | 8.0 | 15.0 | 0.00 | 0.00 | 0.00 | 56 | 1009.2 |
| 20260830180913 | 87 | 219 | 8.0 | 15.0 | 0.00 | 0.00 | 0.00 | 56 | 1009.4 |
| 20260830180410 | 86 | 100 | 9.0 | 14.0 | 0.00 | 0.00 | 0.00 | 58 | 1009.5 |
| 20260830175911 | 85 | 223 | 7.0 | 14.0 | 0.00 | 0.00 | 0.00 | 58 | 1009.4 |
| 20260830175411 | 85 | 225 | 6.0 | 13.0 | 0.00 | 0.00 | 0.00 | 57 | 1009.6 |
| 20260830174910 | 86 | 257 | 6.0 | 13.0 | 0.00 | 0.00 | 0.00 | 57 | 1009.6 |
| 20260830174410 | 87 | 178 | 4.0 | 12.0 | 0.00 | 0.00 | 0.00 | 57 | 1009.4 |
| 20260830173910 | 87 | 171 | 5.0 | 10.0 | 0.00 | 0.00 | 0.00 | 57 | 1009.4 |
| 20260830173409 | 87 | 232 | 6.0 | 12.0 | 0.00 | 0.00 | 0.00 | 57 | 1009.3 |
| 20260830172909 | 86 | 238 | 6.0 | 13.0 | 0.00 | 0.00 | 0.00 | 59 | 1009.5 |
| 20260830171910 | 86 | 203 | 6.0 | 12.0 | 0.00 | 0.00 | 0.00 | 55 | 1009.5 |
| 20260830171409 | 86 | 188 | 7.0 | 12.0 | 0.00 | 0.00 | 0.00 | 55 | 1009.4 |
| 20260830170909 | 86 | 212 | 5.0 | 12.0 | 0.00 | 0.00 | 0.00 | 58 | 1009.4 |
| 20260830165909 | 86 | 165 | 4.0 | 12.0 | 0.00 | 0.00 | 0.00 | 57 | 1009.3 |
| 20260830165408 | 86 | 200 | 6.0 | 12.0 | 0.00 | 0.00 | 0.00 | 56 | 1009.3 |
| 20260830164408 | 87 | 169 | 6.0 | 12.0 | 0.00 | 0.00 | 0.00 | 55 | 1009.3 |
| 20260830163908 | 87 | 182 | 4.0 | 15.0 | 0.00 | 0.00 | 0.00 | 54 | 1009.2 |
| 20260830163407 | 86 | 205 | 5.0 | 15.0 | 0.00 | 0.00 | 0.00 | 57 | 1009.3 |
| 20260830162907 | 86 | 200 | 7.0 | 12.0 | 0.00 | 0.00 | 0.00 | 55 | 1009.3 |
| 20260830162407 | 86 | 177 | 6.0 | 12.0 | 0.00 | 0.00 | 0.00 | 56 | 1009.4 |
| 20260830161407 | 85 | 171 | 6.0 | 14.0 | 0.00 | 0.00 | 0.00 | 58 | 1009.4 |
| 20260830160906 | 85 | 159 | 5.0 | 13.0 | 0.00 | 0.00 | 0.00 | 60 | 1009.3 |
| 20260830160406 | 84 | 215 | 7.0 | 13.0 | 0.00 | 0.00 | 0.00 | 59 | 1009.3 |
| 20260830155406 | 83 | 137 | 5.0 | 12.0 | 0.00 | 0.00 | 0.00 | 61 | 1009.2 |
| 20260830154406 | 84 | 151 | 4.0 | 12.0 | 0.00 | 0.00 | 0.00 | 61 | 1009.2 |
| 20260830153905 | 84 | 133 | 6.0 | 12.0 | 0.00 | 0.00 | 0.00 | 61 | 1009.2 |
| 20260830153405 | 83 | 188 | 4.0 | 9.0 | 0.00 | 0.00 | 0.00 | 63 | 1009.5 |
| 20260830152406 | 83 | 153 | 4.0 | 10.0 | 0.00 | 0.00 | 0.00 | 61 | 1009.4 |
| 20260830151907 | 84 | 175 | 4.0 | 10.0 | 0.00 | 0.00 | 0.00 | 62 | 1009.4 |
| 20260830151405 | 83 | 221 | 4.0 | 9.0 | 0.00 | 0.00 | 0.00 | 62 | 1009.2 |
| 20260830150905 | 83 | 133 | 3.0 | 9.0 | 0.00 | 0.00 | 0.00 | 63 | 1009.2 |
| 20260830150404 | 82 | 170 | 4.0 | 9.0 | 0.00 | 0.00 | 0.00 | 63 | 1009.2 |
| 20260830145904 | 82 | 121 | 3.0 | 9.0 | 0.00 | 0.00 | 0.00 | 63 | 1009.1 |
| 20260830145404 | 82 | 128 | 5.0 | 9.0 | 0.00 | 0.00 | 0.00 | 62 | 1009.2 |
| 20260830144904 | 82 | 168 | 3.0 | 10.0 | 0.00 | 0.00 | 0.00 | 63 | 1009.1 |
| 20260830144404 | 82 | 130 | 5.0 | 10.0 | 0.00 | 0.00 | 0.00 | 64 | 1009.1 |
| 20260830143903 | 81 | 178 | 5.0 | 12.0 | 0.00 | 0.00 | 0.00 | 65 | 1009.0 |
| 20260830143403 | 81 | 162 | 4.0 | 12.0 | 0.00 | 0.00 | 0.00 | 65 | 1008.9 |
| 20260830142903 | 80 | 216 | 4.0 | 9.0 | 0.00 | 0.00 | 0.00 | 66 | 1009.0 |
| 20260830142402 | 80 | 158 | 4.0 | 8.0 | 0.00 | 0.00 | 0.00 | 67 | 1008.8 |
| 20260830141904 | 79 | 214 | 4.0 | 9.0 | 0.00 | 0.00 | 0.00 | 68 | 1009.0 |
| 20260830140903 | 78 | 286 | 4.0 | 10.0 | 0.00 | 0.00 | 0.00 | 67 | 1009.1 |
| 20260830135901 | 78 | 175 | 4.0 | 9.0 | 0.00 | 0.00 | 0.00 | 68 | 1009.1 |
| 20260830134902 | 78 | 148 | 4.0 | 9.0 | 0.00 | 0.00 | 0.00 | 68 | 1009.1 |
| 20260830134401 | 78 | 196 | 3.0 | 6.0 | 0.00 | 0.00 | 0.00 | 68 | 1009.1 |
| 20260830133901 | 77 | 151 | 3.0 | 5.0 | 0.00 | 0.00 | 0.00 | 69 | 1009.2 |
| 20260830133400 | 77 | 137 | 3.0 | 6.0 | 0.00 | 0.00 | 0.00 | 69 | 1009.0 |
| 20260830132901 | 77 | 137 | 3.0 | 8.0 | 0.00 | 0.00 | 0.00 | 69 | 1009.0 |
| 20260830132401 | 77 | 137 | 3.0 | 8.0 | 0.00 | 0.00 | 0.00 | 69 | 1009.1 |
| 20260830131400 | 77 | 133 | 3.0 | 7.0 | 0.00 | 0.00 | 0.00 | 69 | 1009.1 |
| 20260830130900 | 77 | 137 | 3.0 | 7.0 | 0.00 | 0.00 | 0.00 | 68 | 1009.1 |
| 20260830130359 | 77 | 150 | 3.0 | 7.0 | 0.00 | 0.00 | 0.00 | 68 | 1009.2 |
| 20260830125900 | 77 | 140 | 3.0 | 7.0 | 0.00 | 0.00 | 0.00 | 68 | 1009.2 |
| 20260830125359 | 77 | 196 | 2.0 | 6.0 | 0.00 | 0.00 | 0.00 | 67 | 1009.3 |
| 20260830124859 | 78 | 119 | 3.0 | 6.0 | 0.00 | 0.00 | 0.00 | 67 | 1009.3 |
| 20260830123859 | 78 | 238 | 3.0 | 10.0 | 0.00 | 0.00 | 0.00 | 67 | 1009.3 |
| 20260830123358 | 78 | 150 | 2.0 | 10.0 | 0.00 | 0.00 | 0.00 | 66 | 1009.3 |
| 20260830122859 | 78 | 157 | 4.0 | 9.0 | 0.00 | 0.00 | 0.00 | 66 | 1009.2 |
| 20260830122359 | 78 | 173 | 4.0 | 9.0 | 0.00 | 0.00 | 0.00 | 66 | 1009.0 |
| 20260830121859 | 78 | 178 | 4.0 | 9.0 | 0.00 | 0.00 | 0.00 | 66 | 1008.9 |
| 20260830121358 | 78 | 221 | 4.0 | 10.0 | 0.00 | 0.00 | 0.00 | 66 | 1009.0 |
| 20260830120858 | 78 | 162 | 5.0 | 10.0 | 0.00 | 0.00 | 0.00 | 66 | 1008.9 |
| 20260830120357 | 78 | 153 | 3.0 | 9.0 | 0.00 | 0.00 | 0.00 | 66 | 1009.1 |
| 20260830115857 | 78 | 119 | 4.0 | 9.0 | 0.00 | 0.00 | 0.00 | 66 | 1009.2 |
| 20260830115356 | 78 | 144 | 4.0 | 6.0 | 0.00 | 0.00 | 0.00 | 66 | 1009.1 |
| 20260830114856 | 77 | 171 | 2.0 | 7.0 | 0.00 | 0.00 | 0.00 | 66 | 1009.1 |
| 20260830114356 | 78 | 102 | 3.0 | 7.0 | 0.00 | 0.00 | 0.00 | 66 | 1008.9 |
| 20260830113856 | 78 | 123 | 4.0 | 7.0 | 0.00 | 0.00 | 0.00 | 66 | 1008.9 |
| 20260830113356 | 78 | 128 | 3.0 | 7.0 | 0.00 | 0.00 | 0.00 | 65 | 1008.9 |
| 20260830112856 | 78 | 133 | 3.0 | 7.0 | 0.00 | 0.00 | 0.00 | 65 | 1009.0 |
| 20260830112357 | 78 | 126 | 2.0 | 9.0 | 0.00 | 0.00 | 0.00 | 65 | 1009.0 |
| 20260830111355 | 78 | 163 | 2.0 | 10.0 | 0.00 | 0.00 | 0.00 | 66 | 1009.2 |
| 20260830110855 | 78 | 213 | 4.0 | 10.0 | 0.00 | 0.00 | 0.00 | 66 | 1009.4 |
| 20260830110355 | 77 | 213 | 3.0 | 7.0 | 0.00 | 0.00 | 0.00 | 67 | 1009.6 |
| 20260830105854 | 77 | 265 | 3.0 | 9.0 | 0.00 | 0.00 | 0.00 | 67 | 1009.7 |
| 20260830105354 | 78 | 254 | 4.0 | 9.0 | 0.00 | 0.00 | 0.00 | 67 | 1009.7 |
| 20260830104854 | 78 | 236 | 2.0 | 9.0 | 0.00 | 0.00 | 0.00 | 66 | 1009.7 |
| 20260830103854 | 79 | 238 | 5.0 | 7.0 | 0.00 | 0.00 | 0.00 | 64 | 1009.5 |
| 20260830103354 | 79 | 191 | 3.0 | 9.0 | 0.00 | 0.00 | 0.00 | 64 | 1009.5 |
| 20260830102853 | 79 | 192 | 4.0 | 9.0 | 0.00 | 0.00 | 0.00 | 64 | 1009.6 |
| 20260830102355 | 79 | 198 | 3.0 | 6.0 | 0.00 | 0.00 | 0.00 | 65 | 1009.6 |
| 20260830101854 | 79 | 221 | 4.0 | 7.0 | 0.00 | 0.00 | 0.00 | 64 | 1009.7 |
| 20260830101353 | 79 | 237 | 3.0 | 8.0 | 0.00 | 0.00 | 0.00 | 64 | 1009.9 |
| 20260830100854 | 79 | 236 | 3.0 | 8.0 | 0.00 | 0.00 | 0.00 | 64 | 1009.8 |
| 20260830100353 | 79 | 226 | 3.0 | 8.0 | 0.00 | 0.00 | 0.00 | 64 | 1009.8 |
| 20260830095853 | 79 | 209 | 2.0 | 7.0 | 0.00 | 0.00 | 0.00 | 64 | 1009.6 |
| 20260830094852 | 80 | 193 | 4.0 | 8.0 | 0.00 | 0.00 | 0.00 | 63 | 1009.7 |
| 20260830094352 | 80 | 191 | 3.0 | 6.0 | 0.00 | 0.00 | 0.00 | 63 | 1009.7 |
| 20260830093852 | 80 | 156 | 4.0 | 7.0 | 0.00 | 0.00 | 0.00 | 63 | 1009.7 |
| 20260830092853 | 80 | 203 | 4.0 | 8.0 | 0.00 | 0.00 | 0.00 | 63 | 1009.7 |
| 20260830092353 | 79 | 203 | 4.0 | 8.0 | 0.00 | 0.00 | 0.00 | 64 | 1009.8 |
| 20260830091852 | 79 | 242 | 4.0 | 7.0 | 0.00 | 0.00 | 0.00 | 64 | 1009.7 |
| 20260830091352 | 79 | 200 | 4.0 | 7.0 | 0.00 | 0.00 | 0.00 | 64 | 1009.4 |
| 20260830090851 | 79 | 201 | 3.0 | 9.0 | 0.00 | 0.00 | 0.00 | 64 | 1009.4 |
| 20260830090353 | 79 | 205 | 4.0 | 9.0 | 0.00 | 0.00 | 0.00 | 64 | 1009.3 |
| 20260830085852 | 79 | 119 | 4.0 | 8.0 | 0.00 | 0.00 | 0.00 | 64 | 1009.3 |
| 20260830085352 | 79 | 205 | 4.0 | 8.0 | 0.00 | 0.00 | 0.00 | 65 | 1009.3 |
| 20260830084851 | 79 | 178 | 4.0 | 8.0 | 0.00 | 0.00 | 0.00 | 65 | 1009.3 |
| 20260830084351 | 79 | 195 | 2.0 | 9.0 | 0.00 | 0.00 | 0.00 | 65 | 1009.2 |
| 20260830083850 | 79 | 198 | 5.0 | 9.0 | 0.00 | 0.00 | 0.00 | 65 | 1009.3 |
| 20260830083351 | 79 | 187 | 4.0 | 6.0 | 0.00 | 0.00 | 0.00 | 65 | 1009.3 |
| 20260830082851 | 79 | 163 | 3.0 | 7.0 | 0.00 | 0.00 | 0.00 | 65 | 1009.3 |
| 20260830081851 | 79 | 196 | 4.0 | 12.0 | 0.00 | 0.00 | 0.00 | 65 | 1009.4 |
| 20260830081350 | 79 | 121 | 4.0 | 12.0 | 0.00 | 0.00 | 0.00 | 65 | 1009.3 |
| 20260830080850 | 79 | 158 | 4.0 | 9.0 | 0.00 | 0.00 | 0.00 | 65 | 1009.3 |
| 20260830080350 | 79 | 162 | 3.0 | 8.0 | 0.00 | 0.00 | 0.00 | 65 | 1009.3 |
| 20260830075850 | 79 | 178 | 4.0 | 7.0 | 0.00 | 0.00 | 0.00 | 65 | 1009.3 |
| 20260830075350 | 79 | 188 | 3.0 | 8.0 | 0.00 | 0.00 | 0.00 | 65 | 1009.2 |
| 20260830074850 | 79 | 190 | 4.0 | 8.0 | 0.00 | 0.00 | 0.00 | 65 | 1009.2 |
| 20260830074349 | 79 | 148 | 4.0 | 8.0 | 0.00 | 0.00 | 0.00 | 65 | 1009.1 |
| 20260830073850 | 79 | 164 | 5.0 | 10.0 | 0.00 | 0.00 | 0.00 | 65 | 1009.1 |
| 20260830073349 | 79 | 168 | 5.0 | 10.0 | 0.00 | 0.00 | 0.00 | 65 | 1009.0 |
| 20260830072849 | 79 | 137 | 4.0 | 7.0 | 0.00 | 0.00 | 0.00 | 65 | 1009.0 |
| 20260830071849 | 79 | 163 | 5.0 | 8.0 | 0.00 | 0.00 | 0.00 | 65 | 1009.1 |
| 20260830071349 | 80 | 134 | 2.0 | 9.0 | 0.00 | 0.00 | 0.00 | 65 | 1009.2 |
| 20260830070350 | 80 | 161 | 4.0 | 10.0 | 0.00 | 0.00 | 0.00 | 65 | 1009.2 |
| 20260830065849 | 80 | 193 | 5.0 | 10.0 | 0.00 | 0.00 | 0.00 | 65 | 1009.2 |
| 20260830065349 | 80 | 188 | 4.0 | 9.0 | 0.00 | 0.00 | 0.00 | 65 | 1009.2 |
| 20260830064849 | 80 | 209 | 4.0 | 9.0 | 0.00 | 0.00 | 0.00 | 65 | 1009.2 |
| 20260830064348 | 80 | 156 | 3.0 | 9.0 | 0.00 | 0.00 | 0.00 | 65 | 1009.3 |
| 20260830063848 | 80 | 195 | 4.0 | 8.0 | 0.00 | 0.00 | 0.00 | 65 | 1009.3 |
| 20260830063349 | 80 | 195 | 3.0 | 8.0 | 0.00 | 0.00 | 0.00 | 65 | 1009.3 |
| 20260830062848 | 80 | 148 | 3.0 | 8.0 | 0.00 | 0.00 | 0.00 | 65 | 1009.4 |
| 20260830062349 | 80 | 173 | 3.0 | 8.0 | 0.00 | 0.00 | 0.00 | 65 | 1009.4 |
| 20260830061848 | 80 | 138 | 4.0 | 9.0 | 0.00 | 0.00 | 0.00 | 65 | 1009.4 |
| 20260830061347 | 81 | 202 | 4.0 | 9.0 | 0.00 | 0.00 | 0.00 | 65 | 1009.5 |
| 20260830060848 | 81 | 149 | 4.0 | 9.0 | 0.00 | 0.00 | 0.00 | 64 | 1009.4 |
| 20260830060348 | 81 | 167 | 4.0 | 9.0 | 0.00 | 0.00 | 0.00 | 64 | 1009.3 |
| 20260830055848 | 81 | 144 | 3.0 | 9.0 | 0.00 | 0.00 | 0.00 | 64 | 1009.3 |
| 20260830055347 | 82 | 134 | 3.0 | 8.0 | 0.00 | 0.00 | 0.00 | 63 | 1009.4 |
| 20260830054847 | 82 | 234 | 4.0 | 10.0 | 0.00 | 0.00 | 0.00 | 63 | 1009.4 |
| 20260830054347 | 82 | 192 | 5.0 | 12.0 | 0.00 | 0.00 | 0.00 | 62 | 1009.4 |
| 20260830053847 | 82 | 159 | 5.0 | 12.0 | 0.00 | 0.00 | 0.00 | 62 | 1009.3 |
| 20260830052847 | 82 | 207 | 4.0 | 8.0 | 0.00 | 0.00 | 0.00 | 63 | 1009.3 |
| 20260830052348 | 82 | 178 | 4.0 | 12.0 | 0.00 | 0.00 | 0.00 | 63 | 1009.3 |
| 20260830051846 | 83 | 201 | 3.0 | 12.0 | 0.00 | 0.00 | 0.00 | 63 | 1009.3 |
| 20260830050846 | 83 | 158 | 4.0 | 11.0 | 0.00 | 0.00 | 0.00 | 63 | 1009.2 |
| 20260830050346 | 83 | 234 | 3.0 | 11.0 | 0.00 | 0.00 | 0.00 | 63 | 1009.2 |
| 20260830045846 | 83 | 110 | 3.0 | 10.0 | 0.00 | 0.00 | 0.00 | 63 | 1009.2 |
| 20260830045346 | 83 | 167 | 4.0 | 10.0 | 0.00 | 0.00 | 0.00 | 62 | 1009.1 |
| 20260830044846 | 83 | 173 | 4.0 | 8.0 | 0.00 | 0.00 | 0.00 | 62 | 1009.1 |
| 20260830044346 | 83 | 175 | 4.0 | 8.0 | 0.00 | 0.00 | 0.00 | 62 | 1009.2 |
| 20260830043846 | 84 | 170 | 6.0 | 16.0 | 0.00 | 0.00 | 0.00 | 62 | 1009.1 |
| 20260830042346 | 84 | 171 | 4.0 | 13.0 | 0.00 | 0.00 | 0.00 | 63 | 1009.2 |
| 20260830041345 | 84 | 184 | 4.0 | 10.0 | 0.00 | 0.00 | 0.00 | 63 | 1009.2 |
| 20260830040844 | 84 | 162 | 4.0 | 12.0 | 0.00 | 0.00 | 0.00 | 63 | 1009.2 |
| 20260830040345 | 84 | 150 | 6.0 | 12.0 | 0.00 | 0.00 | 0.00 | 63 | 1009.1 |
| 20260830035845 | 84 | 164 | 6.0 | 12.0 | 0.00 | 0.00 | 0.00 | 63 | 1009.2 |
| 20260830035344 | 84 | 190 | 5.0 | 14.0 | 0.00 | 0.00 | 0.00 | 64 | 1009.2 |
| 20260830034844 | 84 | 93 | 7.0 | 14.0 | 0.00 | 0.00 | 0.00 | 64 | 1009.2 |
| 20260830034343 | 84 | 155 | 6.0 | 9.0 | 0.00 | 0.00 | 0.00 | 64 | 1009.1 |
| 20260830033844 | 84 | 189 | 6.0 | 11.0 | 0.00 | 0.00 | 0.00 | 64 | 1009.2 |
| 20260830033343 | 84 | 173 | 5.0 | 11.0 | 0.00 | 0.00 | 0.00 | 64 | 1009.1 |
| 20260830032843 | 84 | 198 | 7.0 | 11.0 | 0.00 | 0.00 | 0.00 | 64 | 1009.1 |
| 20260830032344 | 84 | 165 | 6.0 | 12.0 | 0.00 | 0.00 | 0.00 | 64 | 1008.9 |
| 20260830031843 | 84 | 156 | 6.0 | 12.0 | 0.00 | 0.00 | 0.00 | 64 | 1008.9 |
| 20260830031343 | 84 | 187 | 6.0 | 11.0 | 0.00 | 0.00 | 0.00 | 64 | 1008.9 |
| 20260830030843 | 84 | 134 | 7.0 | 11.0 | 0.00 | 0.00 | 0.00 | 65 | 1008.9 |
| 20260830025843 | 84 | 182 | 6.0 | 13.0 | 0.00 | 0.00 | 0.00 | 66 | 1008.9 |
| 20260830025342 | 84 | 171 | 5.0 | 9.0 | 0.00 | 0.00 | 0.00 | 67 | 1008.9 |
| 20260830024842 | 84 | 157 | 4.0 | 9.0 | 0.00 | 0.00 | 0.00 | 67 | 1008.9 |
| 20260830024342 | 84 | 164 | 4.0 | 11.0 | 0.00 | 0.00 | 0.00 | 67 | 1009.0 |
| 20260830023841 | 84 | 169 | 4.0 | 11.0 | 0.00 | 0.00 | 0.00 | 68 | 1008.9 |
| 20260830023341 | 84 | 178 | 5.0 | 11.0 | 0.00 | 0.00 | 0.00 | 68 | 1008.8 |
| 20260830022841 | 84 | 169 | 3.0 | 10.0 | 0.00 | 0.00 | 0.00 | 68 | 1008.7 |
| 20260830022342 | 84 | 129 | 4.0 | 10.0 | 0.00 | 0.00 | 0.00 | 68 | 1008.7 |
| 20260830021341 | 84 | 205 | 4.0 | 9.0 | 0.00 | 0.00 | 0.00 | 68 | 1008.4 |
| 20260830020840 | 85 | 123 | 4.0 | 10.0 | 0.00 | 0.00 | 0.00 | 68 | 1008.5 |
| 20260830020340 | 85 | 150 | 4.0 | 10.0 | 0.00 | 0.00 | 0.00 | 68 | 1008.4 |
| 20260830015839 | 85 | 183 | 4.0 | 10.0 | 0.00 | 0.00 | 0.00 | 68 | 1008.4 |
| 20260830015338 | 85 | 159 | 4.0 | 9.0 | 0.00 | 0.00 | 0.00 | 68 | 1008.3 |
| 20260830014838 | 85 | 185 | 5.0 | 8.0 | 0.00 | 0.00 | 0.00 | 68 | 1008.2 |